sensor_id;sensor_type;location;lat;lon;timestamp;pressure;altitude;pressure_sealevel;temperature;humidity
14232;BME280;7200;52.194;9.900;2023-08-24T00:00:38;100564.50;;;19.39;100.00
14232;BME280;7200;52.194;9.900;2023-08-24T00:03:03;100565.03;;;19.31;100.00
14232;BME280;7200;52.194;9.900;2023-08-24T00:05:29;100553.34;;;19.32;100.00
14232;BME280;7200;52.194;9.900;2023-08-24T00:07:54;100552.53;;;19.19;100.00
14232;BME280;7200;52.194;9.900;2023-08-24T00:10:19;100559.50;;;19.21;100.00
14232;BME280;7200;52.194;9.900;2023-08-24T00:12:44;100556.78;;;19.34;100.00
14232;BME280;7200;52.194;9.900;2023-08-24T00:15:10;100562.25;;;19.33;100.00
14232;BME280;7200;52.194;9.900;2023-08-24T00:17:37;100560.34;;;19.35;100.00
14232;BME280;7200;52.194;9.900;2023-08-24T00:20:04;100553.78;;;19.52;100.00
14232;BME280;7200;52.194;9.900;2023-08-24T00:22:30;100553.34;;;19.32;100.00
14232;BME280;7200;52.194;9.900;2023-08-24T00:24:55;100558.50;;;19.10;100.00
14232;BME280;7200;52.194;9.900;2023-08-24T00:27:20;100562.47;;;19.42;100.00
14232;BME280;7200;52.194;9.900;2023-08-24T00:29:45;100572.63;;;19.37;100.00
14232;BME280;7200;52.194;9.900;2023-08-24T00:32:11;100585.69;;;19.29;100.00
14232;BME280;7200;52.194;9.900;2023-08-24T00:34:36;100574.47;;;18.85;100.00
14232;BME280;7200;52.194;9.900;2023-08-24T00:37:01;100570.19;;;18.96;100.00
14232;BME280;7200;52.194;9.900;2023-08-24T00:39:26;100568.34;;;18.83;100.00
14232;BME280;7200;52.194;9.900;2023-08-24T00:41:52;100567.16;;;18.75;100.00
14232;BME280;7200;52.194;9.900;2023-08-24T00:44:17;100564.38;;;18.76;100.00
14232;BME280;7200;52.194;9.900;2023-08-24T00:46:42;100564.25;;;18.78;100.00
14232;BME280;7200;52.194;9.900;2023-08-24T00:49:08;100555.38;;;18.77;100.00
14232;BME280;7200;52.194;9.900;2023-08-24T00:51:34;100549.09;;;18.78;100.00
14232;BME280;7200;52.194;9.900;2023-08-24T00:53:59;100554.34;;;18.93;100.00
14232;BME280;7200;52.194;9.900;2023-08-24T00:56:25;100552.59;;;18.79;100.00
14232;BME280;7200;52.194;9.900;2023-08-24T00:58:51;100549.78;;;18.82;100.00
14232;BME280;7200;52.194;9.900;2023-08-24T01:01:20;100547.84;;;18.84;100.00
14232;BME280;7200;52.194;9.900;2023-08-24T01:03:45;100543.41;;;18.70;100.00
14232;BME280;7200;52.194;9.900;2023-08-24T01:06:10;100541.06;;;18.65;100.00
14232;BME280;7200;52.194;9.900;2023-08-24T01:08:36;100538.19;;;18.81;100.00
14232;BME280;7200;52.194;9.900;2023-08-24T01:11:08;100536.06;;;18.99;100.00
14232;BME280;7200;52.194;9.900;2023-08-24T01:16:25;100534.84;;;18.78;100.00
14232;BME280;7200;52.194;9.900;2023-08-24T01:18:55;100543.94;;;18.75;100.00
14232;BME280;7200;52.194;9.900;2023-08-24T01:21:22;100537.47;;;18.92;100.00
14232;BME280;7200;52.194;9.900;2023-08-24T01:23:55;100538.09;;;18.96;100.00
14232;BME280;7200;52.194;9.900;2023-08-24T01:26:22;100539.84;;;18.97;100.00
14232;BME280;7200;52.194;9.900;2023-08-24T01:28:47;100547.69;;;19.50;100.00
14232;BME280;7200;52.194;9.900;2023-08-24T01:31:14;100542.75;;;19.43;100.00
14232;BME280;7200;52.194;9.900;2023-08-24T01:33:40;100542.34;;;19.37;100.00
14232;BME280;7200;52.194;9.900;2023-08-24T01:36:06;100538.50;;;19.28;100.00
14232;BME280;7200;52.194;9.900;2023-08-24T01:38:32;100531.78;;;19.22;100.00
14232;BME280;7200;52.194;9.900;2023-08-24T01:41:28;100524.25;;;19.40;100.00
14232;BME280;7200;52.194;9.900;2023-08-24T01:43:57;100525.22;;;19.39;100.00
14232;BME280;7200;52.194;9.900;2023-08-24T01:46:24;100526.41;;;19.35;100.00
14232;BME280;7200;52.194;9.900;2023-08-24T01:48:52;100525.94;;;19.41;100.00
14232;BME280;7200;52.194;9.900;2023-08-24T01:51:18;100526.19;;;19.38;100.00
14232;BME280;7200;52.194;9.900;2023-08-24T01:53:44;100526.41;;;19.35;100.00
14232;BME280;7200;52.194;9.900;2023-08-24T01:56:11;100523.56;;;18.87;100.00
14232;BME280;7200;52.194;9.900;2023-08-24T01:58:36;100528.38;;;18.82;100.00
14232;BME280;7200;52.194;9.900;2023-08-24T02:01:01;100531.22;;;18.79;100.00
14232;BME280;7200;52.194;9.900;2023-08-24T02:03:27;100532.84;;;18.81;100.00
14232;BME280;7200;52.194;9.900;2023-08-24T02:05:52;100523.94;;;18.68;100.00
14232;BME280;7200;52.194;9.900;2023-08-24T02:08:17;100533.84;;;18.80;100.00
14232;BME280;7200;52.194;9.900;2023-08-24T02:10:42;100522.59;;;19.01;100.00
14232;BME280;7200;52.194;9.900;2023-08-24T02:13:08;100519.69;;;18.78;100.00
14232;BME280;7200;52.194;9.900;2023-08-24T02:15:33;100506.47;;;18.90;100.00
14232;BME280;7200;52.194;9.900;2023-08-24T02:17:58;100511.25;;;18.84;100.00
14232;BME280;7200;52.194;9.900;2023-08-24T02:20:24;100520.09;;;18.72;100.00
14232;BME280;7200;52.194;9.900;2023-08-24T02:22:49;100517.44;;;18.59;100.00
14232;BME280;7200;52.194;9.900;2023-08-24T02:25:14;100507.66;;;18.85;100.00
14232;BME280;7200;52.194;9.900;2023-08-24T02:27:39;100502.03;;;18.50;100.00
14232;BME280;7200;52.194;9.900;2023-08-24T02:30:05;100509.91;;;18.39;100.00
14232;BME280;7200;52.194;9.900;2023-08-24T02:32:31;100504.69;;;18.10;100.00
14232;BME280;7200;52.194;9.900;2023-08-24T02:34:56;100505.06;;;18.18;100.00
14232;BME280;7200;52.194;9.900;2023-08-24T02:37:22;100502.09;;;18.36;100.00
14232;BME280;7200;52.194;9.900;2023-08-24T02:39:47;100507.91;;;18.42;100.00
14232;BME280;7200;52.194;9.900;2023-08-24T02:42:12;100509.69;;;18.29;100.00
14232;BME280;7200;52.194;9.900;2023-08-24T02:44:38;100504.16;;;18.45;100.00
14232;BME280;7200;52.194;9.900;2023-08-24T02:47:04;100493.56;;;18.43;100.00
14232;BME280;7200;52.194;9.900;2023-08-24T02:49:29;100491.41;;;18.36;100.00
14232;BME280;7200;52.194;9.900;2023-08-24T02:51:55;100495.16;;;18.33;100.00
14232;BME280;7200;52.194;9.900;2023-08-24T02:54:20;100488.09;;;18.32;100.00
14232;BME280;7200;52.194;9.900;2023-08-24T02:56:45;100487.66;;;18.13;100.00
14232;BME280;7200;52.194;9.900;2023-08-24T02:59:11;100493.66;;;18.29;100.00
14232;BME280;7200;52.194;9.900;2023-08-24T03:01:36;100487.97;;;18.21;100.00
14232;BME280;7200;52.194;9.900;2023-08-24T03:04:04;100493.25;;;18.48;100.00
14232;BME280;7200;52.194;9.900;2023-08-24T03:06:30;100480.00;;;18.34;100.00
14232;BME280;7200;52.194;9.900;2023-08-24T03:08:55;100477.38;;;18.19;100.00
14232;BME280;7200;52.194;9.900;2023-08-24T03:11:20;100477.38;;;18.06;100.00
14232;BME280;7200;52.194;9.900;2023-08-24T03:13:46;100486.44;;;18.04;100.00
14232;BME280;7200;52.194;9.900;2023-08-24T03:16:11;100478.28;;;17.93;100.00
14232;BME280;7200;52.194;9.900;2023-08-24T03:18:36;100472.78;;;18.08;100.00
14232;BME280;7200;52.194;9.900;2023-08-24T03:21:01;100475.53;;;17.94;100.00
14232;BME280;7200;52.194;9.900;2023-08-24T03:23:27;100481.19;;;17.75;100.00
14232;BME280;7200;52.194;9.900;2023-08-24T03:25:53;100484.56;;;17.64;100.00
14232;BME280;7200;52.194;9.900;2023-08-24T03:28:18;100488.47;;;17.59;100.00
14232;BME280;7200;52.194;9.900;2023-08-24T03:30:48;100493.47;;;17.50;100.00
14232;BME280;7200;52.194;9.900;2023-08-24T03:33:14;100509.09;;;17.84;100.00
14232;BME280;7200;52.194;9.900;2023-08-24T03:35:40;100507.22;;;17.99;100.00
14232;BME280;7200;52.194;9.900;2023-08-24T03:38:05;100509.28;;;18.08;100.00
14232;BME280;7200;52.194;9.900;2023-08-24T03:40:31;100515.69;;;18.05;100.00
14232;BME280;7200;52.194;9.900;2023-08-24T03:42:56;100514.38;;;17.98;100.00
14232;BME280;7200;52.194;9.900;2023-08-24T03:45:22;100491.34;;;17.56;100.00
14232;BME280;7200;52.194;9.900;2023-08-24T03:47:47;100509.53;;;17.63;100.00
14232;BME280;7200;52.194;9.900;2023-08-24T03:50:13;100510.13;;;17.54;100.00
14232;BME280;7200;52.194;9.900;2023-08-24T03:52:38;100485.03;;;17.29;100.00
14232;BME280;7200;52.194;9.900;2023-08-24T03:55:05;100494.63;;;17.74;100.00
14232;BME280;7200;52.194;9.900;2023-08-24T03:57:31;100491.69;;;17.78;100.00
14232;BME280;7200;52.194;9.900;2023-08-24T03:59:57;100503.38;;;17.76;100.00
14232;BME280;7200;52.194;9.900;2023-08-24T04:02:22;100499.31;;;17.70;100.00
14232;BME280;7200;52.194;9.900;2023-08-24T04:04:48;100511.47;;;17.74;100.00
14232;BME280;7200;52.194;9.900;2023-08-24T04:07:13;100509.66;;;17.89;100.00
14232;BME280;7200;52.194;9.900;2023-08-24T04:09:39;100506.38;;;17.71;100.00
14232;BME280;7200;52.194;9.900;2023-08-24T04:12:05;100509.88;;;17.71;100.00
14232;BME280;7200;52.194;9.900;2023-08-24T04:14:31;100509.38;;;17.79;100.00
14232;BME280;7200;52.194;9.900;2023-08-24T04:16:56;100519.06;;;17.95;100.00
14232;BME280;7200;52.194;9.900;2023-08-24T04:19:21;100518.97;;;17.96;100.00
14232;BME280;7200;52.194;9.900;2023-08-24T04:21:47;100506.38;;;17.71;100.00
14232;BME280;7200;52.194;9.900;2023-08-24T04:24:12;100510.91;;;17.42;100.00
14232;BME280;7200;52.194;9.900;2023-08-24T04:26:37;100522.53;;;17.26;100.00
14232;BME280;7200;52.194;9.900;2023-08-24T04:29:03;100532.72;;;17.34;100.00
14232;BME280;7200;52.194;9.900;2023-08-24T04:31:28;100527.13;;;17.39;100.00
14232;BME280;7200;52.194;9.900;2023-08-24T04:33:53;100531.16;;;17.59;100.00
14232;BME280;7200;52.194;9.900;2023-08-24T04:36:18;100534.25;;;17.80;100.00
14232;BME280;7200;52.194;9.900;2023-08-24T04:38:44;100530.81;;;17.92;100.00
14232;BME280;7200;52.194;9.900;2023-08-24T04:41:09;100527.78;;;17.84;100.00
14232;BME280;7200;52.194;9.900;2023-08-24T04:43:35;100522.75;;;17.65;100.00
14232;BME280;7200;52.194;9.900;2023-08-24T04:46:01;100534.56;;;17.75;100.00
14232;BME280;7200;52.194;9.900;2023-08-24T04:48:27;100524.31;;;17.82;100.00
14232;BME280;7200;52.194;9.900;2023-08-24T04:50:52;100536.81;;;17.81;100.00
14232;BME280;7200;52.194;9.900;2023-08-24T04:53:19;100541.59;;;17.90;100.00
14232;BME280;7200;52.194;9.900;2023-08-24T04:55:46;100560.69;;;18.12;100.00
14232;BME280;7200;52.194;9.900;2023-08-24T04:58:12;100564.84;;;18.16;100.00
14232;BME280;7200;52.194;9.900;2023-08-24T05:00:40;100557.50;;;18.19;100.00
14232;BME280;7200;52.194;9.900;2023-08-24T05:03:06;100561.81;;;18.22;100.00
14232;BME280;7200;52.194;9.900;2023-08-24T05:05:32;100561.06;;;18.33;100.00
14232;BME280;7200;52.194;9.900;2023-08-24T05:07:59;100556.09;;;18.41;100.00
14232;BME280;7200;52.194;9.900;2023-08-24T05:10:25;100555.97;;;18.55;100.00
14232;BME280;7200;52.194;9.900;2023-08-24T05:12:50;100557.31;;;18.75;100.00
14232;BME280;7200;52.194;9.900;2023-08-24T05:15:16;100557.25;;;18.90;100.00
14232;BME280;7200;52.194;9.900;2023-08-24T05:17:41;100545.19;;;18.97;100.00
14232;BME280;7200;52.194;9.900;2023-08-24T05:20:07;100537.16;;;18.97;100.00
14232;BME280;7200;52.194;9.900;2023-08-24T05:22:35;100541.22;;;18.90;100.00
14232;BME280;7200;52.194;9.900;2023-08-24T05:25:00;100532.22;;;19.03;100.00
14232;BME280;7200;52.194;9.900;2023-08-24T05:27:26;100520.78;;;19.14;100.00
14232;BME280;7200;52.194;9.900;2023-08-24T05:29:51;100517.66;;;19.08;100.00
14232;BME280;7200;52.194;9.900;2023-08-24T05:32:16;100523.97;;;19.19;100.00
14232;BME280;7200;52.194;9.900;2023-08-24T05:34:42;100530.72;;;19.25;100.00
14232;BME280;7200;52.194;9.900;2023-08-24T05:37:07;100527.34;;;19.34;100.00
14232;BME280;7200;52.194;9.900;2023-08-24T05:39:32;100531.31;;;19.41;100.00
14232;BME280;7200;52.194;9.900;2023-08-24T05:41:58;100521.25;;;19.45;100.00
14232;BME280;7200;52.194;9.900;2023-08-24T05:44:23;100539.09;;;19.57;100.00
14232;BME280;7200;52.194;9.900;2023-08-24T05:46:48;100546.88;;;19.73;100.00
14232;BME280;7200;52.194;9.900;2023-08-24T05:49:14;100545.78;;;19.76;100.00
14232;BME280;7200;52.194;9.900;2023-08-24T05:51:39;100549.69;;;19.96;100.00
14232;BME280;7200;52.194;9.900;2023-08-24T05:54:04;100550.94;;;20.03;100.00
14232;BME280;7200;52.194;9.900;2023-08-24T05:56:30;100555.75;;;20.11;100.00
14232;BME280;7200;52.194;9.900;2023-08-24T05:58:57;100543.03;;;20.01;100.00
14232;BME280;7200;52.194;9.900;2023-08-24T06:01:23;100534.81;;;19.92;100.00
14232;BME280;7200;52.194;9.900;2023-08-24T06:03:49;100530.59;;;19.76;100.00
14232;BME280;7200;52.194;9.900;2023-08-24T06:06:15;100525.41;;;19.36;100.00
14232;BME280;7200;52.194;9.900;2023-08-24T06:08:41;100520.66;;;19.16;100.00
14232;BME280;7200;52.194;9.900;2023-08-24T06:11:06;100530.28;;;19.05;100.00
14232;BME280;7200;52.194;9.900;2023-08-24T06:13:32;100526.13;;;19.01;100.00
14232;BME280;7200;52.194;9.900;2023-08-24T06:15:57;100515.31;;;19.03;100.00
14232;BME280;7200;52.194;9.900;2023-08-24T06:18:23;100511.38;;;19.09;100.00
14232;BME280;7200;52.194;9.900;2023-08-24T06:20:48;100514.63;;;19.38;100.00
14232;BME280;7200;52.194;9.900;2023-08-24T06:23:16;100507.63;;;19.61;100.00
14232;BME280;7200;52.194;9.900;2023-08-24T06:25:41;100501.78;;;19.80;100.00
14232;BME280;7200;52.194;9.900;2023-08-24T06:28:07;100491.94;;;19.80;100.00
14232;BME280;7200;52.194;9.900;2023-08-24T06:30:37;100493.81;;;19.91;100.00
14232;BME280;7200;52.194;9.900;2023-08-24T06:33:04;100486.91;;;19.76;100.00
14232;BME280;7200;52.194;9.900;2023-08-24T06:35:29;100479.97;;;19.73;100.00
14232;BME280;7200;52.194;9.900;2023-08-24T06:37:55;100488.72;;;19.75;100.00
14232;BME280;7200;52.194;9.900;2023-08-24T06:40:20;100485.78;;;19.91;100.00
14232;BME280;7200;52.194;9.900;2023-08-24T06:42:45;100480.00;;;20.09;100.00
14232;BME280;7200;52.194;9.900;2023-08-24T06:45:11;100471.56;;;20.02;100.00
14232;BME280;7200;52.194;9.900;2023-08-24T06:47:36;100477.50;;;19.94;100.00
14232;BME280;7200;52.194;9.900;2023-08-24T06:50:02;100485.09;;;20.00;100.00
14232;BME280;7200;52.194;9.900;2023-08-24T06:52:27;100479.28;;;20.07;100.00
14232;BME280;7200;52.194;9.900;2023-08-24T06:54:52;100479.34;;;20.29;100.00
14232;BME280;7200;52.194;9.900;2023-08-24T06:57:21;100475.63;;;20.54;100.00
14232;BME280;7200;52.194;9.900;2023-08-24T06:59:46;100479.38;;;20.40;100.00
14232;BME280;7200;52.194;9.900;2023-08-24T07:02:11;100481.78;;;20.43;100.00
14232;BME280;7200;52.194;9.900;2023-08-24T07:04:37;100482.16;;;20.39;100.00
14232;BME280;7200;52.194;9.900;2023-08-24T07:07:05;100475.03;;;20.62;100.00
14232;BME280;7200;52.194;9.900;2023-08-24T07:09:30;100476.78;;;20.63;100.00
14232;BME280;7200;52.194;9.900;2023-08-24T07:11:56;100474.47;;;20.81;100.00
14232;BME280;7200;52.194;9.900;2023-08-24T07:14:21;100477.41;;;21.00;100.00
14232;BME280;7200;52.194;9.900;2023-08-24T07:16:46;100475.19;;;21.17;100.00
14232;BME280;7200;52.194;9.900;2023-08-24T07:19:11;100469.69;;;21.18;100.00
14232;BME280;7200;52.194;9.900;2023-08-24T07:21:37;100455.91;;;21.34;100.00
14232;BME280;7200;52.194;9.900;2023-08-24T07:24:02;100459.06;;;21.39;100.00
14232;BME280;7200;52.194;9.900;2023-08-24T07:26:28;100454.66;;;21.61;100.00
14232;BME280;7200;52.194;9.900;2023-08-24T07:28:55;100447.19;;;21.65;100.00
14232;BME280;7200;52.194;9.900;2023-08-24T07:31:21;100446.72;;;21.92;100.00
14232;BME280;7200;52.194;9.900;2023-08-24T07:33:46;100446.41;;;22.06;100.00
14232;BME280;7200;52.194;9.900;2023-08-24T07:36:11;100444.66;;;22.38;100.00
14232;BME280;7200;52.194;9.900;2023-08-24T07:38:37;100430.31;;;22.48;100.00
14232;BME280;7200;52.194;9.900;2023-08-24T07:41:02;100430.44;;;22.68;100.00
14232;BME280;7200;52.194;9.900;2023-08-24T07:43:28;100427.88;;;22.66;100.00
14232;BME280;7200;52.194;9.900;2023-08-24T07:45:54;100427.31;;;22.72;100.00
14232;BME280;7200;52.194;9.900;2023-08-24T07:48:20;100416.50;;;22.53;100.00
14232;BME280;7200;52.194;9.900;2023-08-24T07:50:45;100412.50;;;22.78;100.00
14232;BME280;7200;52.194;9.900;2023-08-24T07:53:10;100419.75;;;22.57;100.00
14232;BME280;7200;52.194;9.900;2023-08-24T07:55:36;100416.44;;;22.74;100.00
14232;BME280;7200;52.194;9.900;2023-08-24T07:58:01;100415.78;;;22.91;100.00
14232;BME280;7200;52.194;9.900;2023-08-24T08:00:27;100418.56;;;23.11;100.00
14232;BME280;7200;52.194;9.900;2023-08-24T08:02:52;100419.13;;;22.74;100.00
14232;BME280;7200;52.194;9.900;2023-08-24T08:05:18;100425.56;;;23.23;100.00
14232;BME280;7200;52.194;9.900;2023-08-24T08:07:43;100422.03;;;23.23;100.00
14232;BME280;7200;52.194;9.900;2023-08-24T08:10:09;100418.50;;;23.01;100.00
14232;BME280;7200;52.194;9.900;2023-08-24T08:12:35;100424.13;;;23.19;100.00
14232;BME280;7200;52.194;9.900;2023-08-24T08:15:01;100430.97;;;23.52;100.00
14232;BME280;7200;52.194;9.900;2023-08-24T08:17:26;100432.69;;;23.54;100.00
14232;BME280;7200;52.194;9.900;2023-08-24T08:19:56;100431.28;;;23.49;100.00
14232;BME280;7200;52.194;9.900;2023-08-24T08:22:22;100437.63;;;23.48;100.00
14232;BME280;7200;52.194;9.900;2023-08-24T08:24:48;100432.97;;;23.50;100.00
14232;BME280;7200;52.194;9.900;2023-08-24T08:27:13;100427.16;;;23.45;100.00
14232;BME280;7200;52.194;9.900;2023-08-24T08:29:38;100420.03;;;23.15;100.00
14232;BME280;7200;52.194;9.900;2023-08-24T08:32:04;100416.81;;;23.50;100.00
14232;BME280;7200;52.194;9.900;2023-08-24T08:34:31;100426.91;;;23.68;100.00
14232;BME280;7200;52.194;9.900;2023-08-24T08:36:56;100426.34;;;23.64;100.00
14232;BME280;7200;52.194;9.900;2023-08-24T08:39:22;100430.19;;;23.91;100.00
14232;BME280;7200;52.194;9.900;2023-08-24T08:41:48;100429.19;;;24.12;100.00
14232;BME280;7200;52.194;9.900;2023-08-24T08:44:14;100436.81;;;24.26;100.00
14232;BME280;7200;52.194;9.900;2023-08-24T08:46:43;100445.72;;;24.46;100.00
14232;BME280;7200;52.194;9.900;2023-08-24T08:49:09;100446.09;;;24.71;100.00
14232;BME280;7200;52.194;9.900;2023-08-24T08:51:38;100445.56;;;24.47;100.00
14232;BME280;7200;52.194;9.900;2023-08-24T08:54:05;100449.13;;;24.58;100.00
14232;BME280;7200;52.194;9.900;2023-08-24T08:56:31;100448.91;;;24.79;100.00
14232;BME280;7200;52.194;9.900;2023-08-24T08:58:58;100443.84;;;24.66;100.00
14232;BME280;7200;52.194;9.900;2023-08-24T09:01:24;100445.59;;;24.95;100.00
14232;BME280;7200;52.194;9.900;2023-08-24T09:03:49;100449.34;;;25.12;100.00
14232;BME280;7200;52.194;9.900;2023-08-24T09:06:16;100445.41;;;25.06;100.00
14232;BME280;7200;52.194;9.900;2023-08-24T09:08:41;100443.56;;;25.34;100.00
14232;BME280;7200;52.194;9.900;2023-08-24T09:11:08;100453.88;;;25.49;100.00
14232;BME280;7200;52.194;9.900;2023-08-24T09:13:34;100457.69;;;25.46;100.00
14232;BME280;7200;52.194;9.900;2023-08-24T09:16:04;100456.38;;;25.32;100.00
14232;BME280;7200;52.194;9.900;2023-08-24T09:18:38;100446.59;;;25.67;100.00
14232;BME280;7200;52.194;9.900;2023-08-24T09:21:11;100452.63;;;25.61;100.00
14232;BME280;7200;52.194;9.900;2023-08-24T09:23:38;100454.25;;;25.72;100.00
14232;BME280;7200;52.194;9.900;2023-08-24T09:26:04;100457.53;;;25.93;100.00
14232;BME280;7200;52.194;9.900;2023-08-24T09:28:30;100457.97;;;26.07;100.00
14232;BME280;7200;52.194;9.900;2023-08-24T09:30:55;100454.19;;;26.17;100.00
14232;BME280;7200;52.194;9.900;2023-08-24T09:33:21;100446.31;;;26.06;100.00
14232;BME280;7200;52.194;9.900;2023-08-24T09:35:54;100451.88;;;26.05;100.00
14232;BME280;7200;52.194;9.900;2023-08-24T09:38:27;100447.50;;;26.03;100.00
14232;BME280;7200;52.194;9.900;2023-08-24T09:40:53;100443.44;;;25.90;100.00
14232;BME280;7200;52.194;9.900;2023-08-24T09:43:20;100447.50;;;26.03;100.00
14232;BME280;7200;52.194;9.900;2023-08-24T09:45:55;100454.13;;;26.09;100.00
14232;BME280;7200;52.194;9.900;2023-08-24T09:48:21;100446.63;;;25.85;100.00
14232;BME280;7200;52.194;9.900;2023-08-24T09:50:50;100449.56;;;25.74;100.00
14232;BME280;7200;52.194;9.900;2023-08-24T09:53:18;100441.41;;;25.56;100.00
14232;BME280;7200;52.194;9.900;2023-08-24T09:56:01;100436.78;;;25.84;100.00
14232;BME280;7200;52.194;9.900;2023-08-24T09:58:28;100431.31;;;26.12;100.00
14232;BME280;7200;52.194;9.900;2023-08-24T10:00:55;100422.69;;;25.90;100.00
14232;BME280;7200;52.194;9.900;2023-08-24T10:03:24;100431.72;;;26.17;100.00
14232;BME280;7200;52.194;9.900;2023-08-24T10:05:52;100423.28;;;26.46;100.00
14232;BME280;7200;52.194;9.900;2023-08-24T10:08:29;100410.88;;;26.61;100.00
14232;BME280;7200;52.194;9.900;2023-08-24T10:10:58;100409.25;;;26.16;100.00
14232;BME280;7200;52.194;9.900;2023-08-24T10:13:46;100409.53;;;26.13;100.00
14232;BME280;7200;52.194;9.900;2023-08-24T10:16:16;100400.41;;;26.40;100.00
14232;BME280;7200;52.194;9.900;2023-08-24T10:18:41;100398.66;;;26.84;100.00
14232;BME280;7200;52.194;9.900;2023-08-24T10:21:08;100391.19;;;26.77;100.00
14232;BME280;7200;52.194;9.900;2023-08-24T10:23:34;100396.03;;;27.08;100.00
14232;BME280;7200;52.194;9.900;2023-08-24T10:26:02;100387.84;;;27.26;100.00
14232;BME280;7200;52.194;9.900;2023-08-24T10:28:28;100384.41;;;27.24;100.00
14232;BME280;7200;52.194;9.900;2023-08-24T10:30:58;100373.38;;;27.17;100.00
14232;BME280;7200;52.194;9.900;2023-08-24T10:33:25;100359.00;;;27.09;100.00
14232;BME280;7200;52.194;9.900;2023-08-24T10:35:51;100351.72;;;27.09;100.00
14232;BME280;7200;52.194;9.900;2023-08-24T10:38:27;100366.84;;;27.36;100.00
14232;BME280;7200;52.194;9.900;2023-08-24T10:40:53;100363.81;;;27.48;100.00
14232;BME280;7200;52.194;9.900;2023-08-24T10:43:19;100351.97;;;27.73;100.00
14232;BME280;7200;52.194;9.900;2023-08-24T10:48:19;100346.53;;;27.57;100.00
14232;BME280;7200;52.194;9.900;2023-08-24T10:53:59;100354.88;;;27.64;100.00
14232;BME280;7200;52.194;9.900;2023-08-24T10:56:35;100354.16;;;27.78;100.00
14232;BME280;7200;52.194;9.900;2023-08-24T10:59:17;100346.91;;;27.54;100.00
14232;BME280;7200;52.194;9.900;2023-08-24T11:02:02;100360.81;;;27.92;100.00
14232;BME280;7200;52.194;9.900;2023-08-24T11:04:29;100357.09;;;28.01;100.00
14232;BME280;7200;52.194;9.900;2023-08-24T11:06:56;100357.31;;;28.47;100.00
14232;BME280;7200;52.194;9.900;2023-08-24T11:09:23;100340.47;;;27.88;100.00
14232;BME280;7200;52.194;9.900;2023-08-24T11:11:56;100341.06;;;28.39;100.00
14232;BME280;7200;52.194;9.900;2023-08-24T11:14:22;100341.53;;;28.51;100.00
14232;BME280;7200;52.194;9.900;2023-08-24T11:16:50;100319.84;;;28.43;100.00
14232;BME280;7200;52.194;9.900;2023-08-24T11:19:16;100326.59;;;28.55;100.00
14232;BME280;7200;52.194;9.900;2023-08-24T11:21:43;100315.13;;;28.84;100.00
14232;BME280;7200;52.194;9.900;2023-08-24T11:24:10;100312.31;;;28.69;100.00
14232;BME280;7200;52.194;9.900;2023-08-24T11:26:44;100301.94;;;28.73;100.00
14232;BME280;7200;52.194;9.900;2023-08-24T11:29:11;100287.94;;;29.16;100.00
14232;BME280;7200;52.194;9.900;2023-08-24T11:31:37;100317.84;;;29.07;100.00
14232;BME280;7200;52.194;9.900;2023-08-24T11:34:03;100306.97;;;28.84;100.00
14232;BME280;7200;52.194;9.900;2023-08-24T11:36:30;100301.66;;;28.91;100.00
14232;BME280;7200;52.194;9.900;2023-08-24T11:38:57;100239.50;;;28.33;100.00
14232;BME280;7200;52.194;9.900;2023-08-24T11:41:23;100286.84;;;28.23;100.00
14232;BME280;7200;52.194;9.900;2023-08-24T11:43:49;100277.66;;;28.32;100.00
14232;BME280;7200;52.194;9.900;2023-08-24T11:46:23;100296.41;;;28.58;100.00
14232;BME280;7200;52.194;9.900;2023-08-24T11:48:48;100277.34;;;28.66;100.00
14232;BME280;7200;52.194;9.900;2023-08-24T11:51:13;100259.25;;;28.50;100.00
14232;BME280;7200;52.194;9.900;2023-08-24T11:53:45;100256.00;;;28.24;100.00
14232;BME280;7200;52.194;9.900;2023-08-24T11:56:12;100231.53;;;28.32;100.00
14232;BME280;7200;52.194;9.900;2023-08-24T11:58:38;100228.16;;;28.30;100.00
14232;BME280;7200;52.194;9.900;2023-08-24T12:01:05;100265.00;;;28.64;100.00
14232;BME280;7200;52.194;9.900;2023-08-24T12:03:31;100218.06;;;28.78;100.00
14232;BME280;7200;52.194;9.900;2023-08-24T12:06:00;100230.19;;;28.67;100.00
14232;BME280;7200;52.194;9.900;2023-08-24T12:08:26;100215.72;;;28.98;100.00
14232;BME280;7200;52.194;9.900;2023-08-24T12:10:52;100216.53;;;29.07;100.00
14232;BME280;7200;52.194;9.900;2023-08-24T12:13:17;100211.75;;;29.09;100.00
14232;BME280;7200;52.194;9.900;2023-08-24T12:15:43;100161.16;;;29.46;100.00
14232;BME280;7200;52.194;9.900;2023-08-24T12:18:12;100157.13;;;29.42;100.00
14232;BME280;7200;52.194;9.900;2023-08-24T12:20:38;100166.28;;;28.80;100.00
14232;BME280;7200;52.194;9.900;2023-08-24T12:23:06;100176.03;;;29.12;100.00
14232;BME280;7200;52.194;9.900;2023-08-24T12:25:36;100168.94;;;29.11;100.00
14232;BME280;7200;52.194;9.900;2023-08-24T12:28:13;100132.66;;;29.04;100.00
14232;BME280;7200;52.194;9.900;2023-08-24T12:30:53;100126.88;;;29.45;100.00
14232;BME280;7200;52.194;9.900;2023-08-24T12:33:22;100107.16;;;29.13;100.00
14232;BME280;7200;52.194;9.900;2023-08-24T12:35:48;100116.09;;;29.37;100.00
14232;BME280;7200;52.194;9.900;2023-08-24T12:38:13;100119.84;;;29.65;100.00
14232;BME280;7200;52.194;9.900;2023-08-24T12:40:38;100086.75;;;29.62;100.00
14232;BME280;7200;52.194;9.900;2023-08-24T12:43:04;100040.59;;;29.83;95.28
14232;BME280;7200;52.194;9.900;2023-08-24T12:45:29;100050.72;;;29.89;94.23
14232;BME280;7200;52.194;9.900;2023-08-24T12:47:54;99980.44;;;29.57;87.25
14232;BME280;7200;52.194;9.900;2023-08-24T12:50:20;100040.19;;;29.35;91.97
14232;BME280;7200;52.194;9.900;2023-08-24T12:52:45;100075.78;;;29.25;96.09
14232;BME280;7200;52.194;9.900;2023-08-24T12:55:10;100039.06;;;29.29;93.21